Terminal Aerodrome Forecast
Issued by NWS Wilmington, OH

Current Version | Previous Version | Graphics & Text | Print | Product List | Glossary On
Versions: 1 2 3 4 5 6 7 8 9 10 11 12 13 14 15 16 17 18 19 20 21 22 23 24 25
000
FTUS41 KILN 261609 AAD
TAFILN
TAF AMD
KILN 261609Z 2616/2712 26008KT 3SM RA BR FEW021 BKN045 OVC090
     FM261800 29012G20KT P6SM BKN025
     FM262000 28012G18KT P6SM SKC
     FM270000 24005KT P6SM SKC=

USA.gov is the U.S. government's official web portal to all federal, state and local government web resources and services.